createdAt,value
2019-04-25T00:09:22.351Z,957.3
2019-04-25T00:19:25.685Z,957.3
2019-04-25T00:29:29.022Z,957.2
2019-04-25T00:39:32.356Z,957.4
2019-04-25T00:49:35.704Z,957.3
2019-04-25T00:59:39.050Z,957.4
2019-04-25T01:09:44.292Z,957.3
2019-04-25T01:19:47.714Z,957.2
2019-04-25T01:29:52.052Z,957.3
2019-04-25T01:39:57.335Z,957.5
2019-04-25T01:50:00.686Z,957.5
2019-04-25T02:00:04.293Z,957.6
2019-04-25T02:10:07.626Z,957.6
2019-04-25T02:20:10.962Z,957.7
2019-04-25T02:30:15.939Z,957.7
2019-04-25T02:40:19.332Z,957.8
2019-04-25T02:50:24.890Z,957.7
2019-04-25T03:00:38.978Z,957.7
2019-04-25T03:10:49.228Z,957.7
2019-04-25T03:20:55.229Z,957.7
2019-04-25T03:31:20.997Z,957.6
2019-04-25T03:41:25.323Z,957.5
2019-04-25T03:51:28.664Z,957.6
2019-04-25T04:01:31.991Z,957.6
2019-04-25T04:11:35.323Z,957.4
2019-04-25T04:21:39.642Z,957.3
2019-04-25T04:31:43.386Z,957.4
2019-04-25T04:41:46.736Z,957.5
2019-04-25T04:51:50.073Z,957.6
2019-04-25T05:01:53.528Z,957.8
2019-04-25T05:11:56.854Z,957.9
2019-04-25T05:22:00.183Z,957.8
2019-04-25T05:32:04.532Z,958
2019-04-25T05:42:08.033Z,957.9
2019-04-25T05:52:11.365Z,957.9
2019-04-25T06:02:14.683Z,957.9
2019-04-25T06:12:18.426Z,958
2019-04-25T06:22:25.688Z,954
2019-04-25T06:32:29.207Z,952
2019-04-25T06:42:34.901Z,951.6
2019-04-25T06:52:38.234Z,951.5
2019-04-25T07:16:34.875Z,957.6
2019-04-25T07:26:40.105Z,957.3
2019-04-25T07:36:43.445Z,957.3
2019-04-25T07:46:46.778Z,957
2019-04-25T09:38:57.380Z,955.2
2019-04-25T09:49:00.718Z,954.8
2019-04-25T09:59:04.049Z,954.7
2019-04-25T10:09:07.379Z,954.4
2019-04-25T10:19:10.694Z,954.4
2019-04-25T10:29:14.023Z,954.3
2019-04-25T10:39:17.502Z,954.1
2019-04-25T10:49:20.852Z,953.9
2019-04-25T10:59:24.186Z,953.8
2019-04-25T11:09:27.499Z,953.6
2019-04-25T11:19:30.829Z,953.4
2019-04-25T11:29:34.453Z,953.2
2019-04-25T11:39:37.761Z,953
2019-04-25T11:49:47.728Z,953
2019-04-25T11:59:51.139Z,953
2019-04-25T12:09:55.862Z,952.7
2019-04-25T12:19:59.171Z,952.6
2019-04-25T12:30:05.779Z,952.6
2019-04-25T12:40:09.111Z,952.4
2019-04-25T12:50:14.199Z,952.4
2019-04-25T13:00:17.683Z,952.2
2019-04-25T13:10:21.009Z,952.2
2019-04-25T13:20:24.352Z,952.4
